• Join FlightAware (Why Join?)
  • Login
  • US Flag 
Trick or treat! (Boo!!) 
04:02AM EDT


 

Airport Tracker/Info


-or-


 

Live Flight TrackerFlight Track Log ✈ N244A ✈ 08-Nov-2013 ✈ CYYZ - KTPA

Flight Track Log - Related Links

Times and Time Zones

All times are in EST time to prevent confusion due to time zone crossing. See the N244A flight status page for this flight to view local times or setup timezone preferences in your user account.

Time Position Orientation Groundspeed Altitude Reporting Facility
EST Latitude Longitude Course Direction KTS MPH feet Rate Location/Type
06:20PM 43.6167 -79.7000 216° Southwest 230 265 4,100  Level Toronto Center
06:21PM 43.5500 -79.7167 190° South 280 322 7,100 2,940 Climbing Toronto Center
06:22PM 43.4667 -79.7167 180° South 290 334 10,000 2,280 Climbing Toronto Center
06:23PM 43.3667 -79.7167 180° South 370 426 11,700 2,100 Climbing Toronto Center
06:24PM 43.2500 -79.7500 192° South 420 483 14,300 2,580 Climbing Toronto Center
06:25PM 43.1333 -79.7500 180° South 430 495 16,900 2,280 Climbing Toronto Center
06:26PM 43.0167 -79.7500 180° South 440 506 18,900 1,920 Climbing Toronto Center
06:27PM 42.8833 -79.7500 180° South 460 529 20,800 1,740 Climbing Toronto Center
06:28PM 42.7914 -79.7997 202° Southwest 464 534 22,400 1,920 Climbing Cleveland Center
06:29PM 42.6361 -79.8350 189° South 474 545 24,800 2,100 Climbing Cleveland Center
06:30PM 42.5058 -79.8611 188° South 478 550 26,800 1,740 Climbing Cleveland Center
06:31PM 42.3800 -79.8889 189° South 476 548 28,400 1,200 Climbing Cleveland Center
06:32PM 42.2472 -79.9161 189° South 484 557 29,300 960 Climbing Cleveland Center
06:33PM 42.0856 -79.9522 189° South 493 567 30,500 960 Climbing Cleveland Center
06:34PM 41.9508 -79.9797 189° South 495 570 31,400 780 Climbing Cleveland Center
06:35PM 41.8189 -80.0067 189° South 495 570 32,200 780 Climbing Cleveland Center
06:36PM 41.6819 -80.0367 189° South 492 566 33,100 900 Climbing Cleveland Center
06:37PM 41.5314 -80.0650 188° South 493 567 34,100 900 Climbing Cleveland Center
06:38PM 41.3983 -80.0950 190° South 487 560 35,000 840 Climbing Cleveland Center
06:39PM 41.2644 -80.1206 188° South 487 560 35,900 780 Climbing Cleveland Center
06:40PM 41.1325 -80.1483 189° South 483 556 36,700 480 Climbing Cleveland Center
06:41PM 41.0039 -80.1750 189° South 472 543 37,000 120 Climbing Cleveland Center
06:43PM 40.8533 -80.2047 188° South 479 551 37,000  Level Cleveland Center
06:44PM 40.7083 -80.2358 189° South 478 550 37,000  Level Cleveland Center
06:45PM 40.5767 -80.2628 189° South 482 555 37,000 360 Level Cleveland Center
06:46PM 40.4475 -80.2897 189° South 475 547 37,800 720 Climbing Cleveland Center
06:47PM 40.3111 -80.3189 189° South 455 524 38,600 720 Climbing Cleveland Center
06:48PM 40.1908 -80.3439 189° South 445 512 39,400 660 Climbing Cleveland Center
06:49PM 40.0739 -80.3689 189° South 432 497 40,000 240 Climbing Cleveland Center
06:50PM 39.9572 -80.3933 189° South 427 491 40,000  Level Cleveland Center
06:51PM 39.8397 -80.4164 189° South 428 493 40,000  Level Cleveland Center
06:52PM 39.6986 -80.4456 189° South 427 491 40,000  Level Cleveland Center
06:53PM 39.5797 -80.4686 189° South 431 496 40,000  Level Cleveland Center
06:54PM 39.4628 -80.4964 190° South 429 494 40,000  Level Cleveland Center
06:55PM 39.3447 -80.5197 189° South 430 495 40,000  Level Cleveland Center
06:56PM 39.2256 -80.5425 188° South 434 499 40,000  Level Cleveland Center
06:57PM 39.0844 -80.5728 189° South 431 496 40,000  Level Cleveland Center
06:58PM 38.9714 -80.6114 195° South 422 486 40,000  Level Cleveland Center
06:59PM 38.8617 -80.6528 196° South 414 476 40,000  Level Cleveland Center
07:00PM 38.7075 -80.7125 197° South 414 476 40,000  Level Indianapolis Center
07:01PM 38.5900 -80.7406 191° South 423 487 40,000  Level Indianapolis Center
07:03PM 38.4703 -80.7594 187° South 431 496 40,000  Level Indianapolis Center
07:04PM 38.3506 -80.7833 189° South 431 496 40,000  Level Indianapolis Center
07:05PM 38.2319 -80.8058 188° South 429 494 40,000  Level Indianapolis Center
07:06PM 38.1139 -80.8283 189° South 427 491 40,000  Level Indianapolis Center
07:07PM 37.9717 -80.8564 189° South 428 493 40,000  Level Indianapolis Center
07:08PM 37.8522 -80.8772 188° South 431 496 40,000  Level Indianapolis Center
07:09PM 37.7297 -80.9017 189° South 432 497 40,000  Level Indianapolis Center
07:10PM 37.6156 -80.9231 188° South 429 494 40,000  Level Indianapolis Center
07:11PM 37.4975 -80.9442 188° South 433 498 40,000  Level Indianapolis Center
07:12PM 37.3592 -80.9717 189° South 432 497 40,000  Level Indianapolis Center
07:13PM 37.2422 -80.9917 188° South 434 499 40,000  Level Indianapolis Center
07:14PM 37.1256 -81.0150 189° South 435 501 40,000  Level Indianapolis Center
07:15PM 36.9856 -81.0389 188° South 435 501 40,000  Level Indianapolis Center
07:16PM 36.8692 -81.0608 189° South 434 499 40,000  Level Indianapolis Center
07:17PM 36.7533 -81.0822 188° South 433 498 40,000  Level Indianapolis Center
07:18PM 36.6367 -81.1025 188° South 433 498 40,000  Level Indianapolis Center
07:19PM 36.4967 -81.1292 189° South 435 501 40,000  Level Indianapolis Center
07:20PM 36.3817 -81.1494 188° South 429 494 40,000  Level Indianapolis Center
07:21PM 36.2658 -81.1700 188° South 430 495 40,000  Level Indianapolis Center
07:22PM 36.1150 -81.1986 189° South 427 491 40,000  Level Atlanta Center
07:23PM 35.9967 -81.2181 188° South 427 491 40,000  Level Atlanta Center
07:24PM 35.8636 -81.2433 189° South 440 506 40,000  Level Atlanta Center
07:25PM 35.7536 -81.2650 189° South 440 506 40,000  Level Atlanta Center
07:26PM 35.6247 -81.2847 187° South 435 501 40,000  Level Atlanta Center
07:27PM 35.5064 -81.3064 188° South 435 501 40,000  Level Atlanta Center
07:28PM 35.3836 -81.3283 188° South 435 501 40,000  Level Atlanta Center
07:29PM 35.2675 -81.3500 189° South 435 501 40,000  Level Atlanta Center
07:30PM 35.1469 -81.3717 188° South 440 506 40,000  Level Atlanta Center
07:32PM 34.9314 -81.4089 188° South 433 498 40,000  Level Jacksonville Center
07:33PM 34.8083 -81.4286 187° South 438 504 40,000  Level Jacksonville Center
07:34PM 34.6919 -81.4533 190° South 438 504 40,000  Level Jacksonville Center
07:35PM 34.5692 -81.4706 187° South 438 504 40,000  Level Jacksonville Center
07:36PM 34.4483 -81.4925 189° South 444 511 40,000  Level Jacksonville Center
07:37PM 34.3339 -81.5147 189° South 444 511 40,000  Level Jacksonville Center
07:38PM 34.2153 -81.5392 190° South 444 511 40,000  Level Jacksonville Center
07:39PM 34.1028 -81.5758 195° South 437 503 40,000  Level Jacksonville Center
07:40PM 33.9864 -81.6078 193° South 431 496 40,000  Level Jacksonville Center
07:41PM 33.8719 -81.6369 192° South 431 496 40,000  Level Jacksonville Center
07:42PM 33.7575 -81.6736 195° South 431 496 40,000  Level Jacksonville Center
07:43PM 33.6431 -81.7025 192° South 431 496 40,000  Level Jacksonville Center
07:44PM 33.5264 -81.7364 194° South 431 496 40,000  Level Jacksonville Center
07:45PM 33.4119 -81.7678 193° South 431 496 40,000  Level Jacksonville Center
07:46PM 33.2975 -81.7992 193° South 431 496 40,000  Level Jacksonville Center
07:47PM 33.1808 -81.8328 194° South 431 496 40,000  Level Jacksonville Center
07:48PM 33.0642 -81.8639 193° South 431 496 40,000  Level Jacksonville Center
07:49PM 32.9497 -81.8950 193° South 431 496 40,000  Level Jacksonville Center
07:50PM 32.8308 -81.9283 193° South 431 496 40,000  Level Jacksonville Center
07:51PM 32.7142 -81.9592 193° South 431 496 40,000  Level Jacksonville Center
07:52PM 32.6017 -81.9950 195° South 423 487 40,000  Level Jacksonville Center
07:53PM 32.4831 -82.0208 190° South 423 487 40,000  Level Jacksonville Center
07:54PM 32.3558 -82.0614 195° South 429 494 40,000  Level Jacksonville Center
07:55PM 32.2497 -82.0917 194° South 435 501 40,000  Level Jacksonville Center
07:56PM 32.1139 -82.1053 185° South 443 510 40,000  Level Jacksonville Center
07:57PM 32.0014 -82.1183 186° South 453 521 40,000  Level Jacksonville Center
07:58PM 31.8658 -82.1342 186° South 453 521 40,000  Level Jacksonville Center
07:59PM 31.7425 -82.1450 184° South 445 512 40,000  Level Jacksonville Center
08:00PM 31.6342 -82.1556 185° South 438 504 40,000  Level Jacksonville Center
08:01PM 31.5067 -82.1689 185° South 444 511 40,000  Level Jacksonville Center
08:02PM 31.3858 -82.1819 185° South 444 511 40,000  Level Jacksonville Center
08:03PM 31.2606 -82.1928 184° South 444 511 40,000  Level Jacksonville Center
08:04PM 31.1353 -82.2058 185° South 444 511 40,000 -240 Level Jacksonville Center
08:05PM 31.0100 -82.2186 185° South 449 517 39,600 -540 Descending Jacksonville Center
08:06PM 30.8808 -82.2342 186° South 454 522 39,000 -600 Descending Jacksonville Center
08:07PM 30.7514 -82.2447 184° South 466 536 38,400 -540 Descending Jacksonville Center
08:08PM 30.6200 -82.2625 187° South 472 543 38,000 -300 Descending Jacksonville Center
08:09PM 30.4800 -82.2683 182° South 466 536 37,900 -60 Descending Jacksonville Center
08:10PM 30.3486 -82.2811 185° South 466 536 37,900 -240 Level Jacksonville Center
08:11PM 30.2172 -82.2939 185° South 466 536 37,500 -1,320 Descending Jacksonville Center
08:12PM 30.0856 -82.3069 185° South 471 542 35,300 -2,220 Descending Jacksonville Center
08:13PM 29.9500 -82.3269 187° South 484 557 33,100 -1,980 Descending Jacksonville Center
08:14PM 29.8436 -82.3369 185° South 490 564 31,400 -2,220 Descending Jacksonville Center
08:15PM 29.6786 -82.3475 183° South 490 564 28,700 -2,460 Descending Jacksonville Center
08:16PM 29.5367 -82.3556 183° South 501 577 26,500 -1,740 Descending Jacksonville Center
08:17PM 29.3969 -82.3347 173° South 501 577 25,300 -2,040 Descending Jacksonville Center
08:18PM 29.2547 -82.3214 175° South 511 588 22,500 -2,700 Descending Jacksonville Center
08:19PM 29.1169 -82.3031 173° South 511 588 19,900 -2,520 Descending Jacksonville Center
08:20PM 28.9853 -82.2872 174° South 496 571 17,500 -2,520 Descending Jacksonville Center
08:21PM 28.8600 -82.2739 175° South 481 554 14,900 -1,560 Descending Jacksonville Center
08:23PM 28.6167 -82.2500 175° South 440 506 13,000 -960 Descending Tampa TRACON
08:24PM 28.5000 -82.2500 180° South 422 486 12,100 -960 Descending Tampa TRACON
08:25PM 28.3833 -82.2500 180° South 420 483 11,000 -600 Descending Tampa TRACON
08:26PM 28.2833 -82.3333 216° Southwest 415 478 11,000 -300 Level Tampa TRACON
08:27PM 28.2000 -82.4000 215° Southwest 304 350 10,500 -1,320 Descending Tampa TRACON
08:28PM 28.1333 -82.4167 192° South 291 335 8,500 -2,460 Descending Tampa TRACON
08:29PM 28.0500 -82.4167 180° South 302 348 5,900 -1,860 Descending Tampa TRACON
08:30PM 27.9833 -82.4167 180° South 258 297 5,000 -960 Descending Tampa TRACON
08:31PM 27.8833 -82.4500 196° South 262 302 3,700 -1,140 Descending Tampa TRACON
08:32PM 27.8167 -82.4667 192° South 272 313 2,600 -600 Descending Tampa TRACON
08:33PM 27.8167 -82.5333 270° West 216 249 2,600 -180 Level Tampa TRACON
08:34PM 27.8500 -82.5500 336° Northwest 144 166 2,300 -720 Descending Tampa TRACON
08:35PM 27.8833 -82.5500 360° North 133 153 1,400 -780 Descending Tampa TRACON
08:36PM 27.9167 -82.5500 360° North 111 128 800 -600 Descending Tampa TRACON